Airport ID:KRTS
Update Time (UTC):29/01/2023 06:11
Wind Speed (Knots):7
Wind Direction (Magnetic):310
Temperature (°C):-2
Dew Point (°C):-9
Humidity (%):62
Altimeter (inHg):29.84
Density Altitude (Feet):
Visibility:10+
Clouds (Hundreds of feet):CLR
Present Weather:
METAR:METAR KRTS 290610Z AUTO 32007G12KT 10SM CLR M02/M09 A2984 RMK AO2

The data displayed is for advisory purposes only and is not to be used for flight planning or operations.